Main page
METAR-TAF:

METAR-TAF

Airports :

Bordj Mokhtar Airport

Bordj Badji Mokhtar, Algeria

latitude: 21-22-30N, longitude: 000-55-26E, elevation: 396 m

Current weather observation

The report was made 5 hours and 8 minutes ago, at 18:00 UTC
Wind 8 kt from the South
Temperature 38°C
Humidity 13%
Pressure 1012 hPa
Visibility: 4000 m
sand

METAR: DATM 251800Z 18008KT 4000 SA NSC 38/05 Q1012

Time: 00:08 (23:08 UTC)

Forecast

The report was made 6 hours and 8 minutes ago, at 17:00 UTC
Forecast valid from 25 at 18 UTC to 26 at 03 UTC
Wind 8 kt from the Southwest
Visibility: 3500 m
sand

TAF: DATM 251700Z 2518/2603 22008KT 3500 SA NSC

Weather observations and forecasts of more than 4000 airports (METAR and TAF reports).

The available stations are represented by yellow and red dots on the map.

Hover mouse over dot to see the name of the station.

Then click to see weather observations and forecasts.

To change the map : click on the green buttons with a black cross to zoom in, on the green button with a dash to zoom out, or on the green arrows for adjacent maps.


METAR-TAF: